Maidsville, West Virginia
Current Conditions -  °F | °C
As of 6:53 PM on Wednesday 28 Jan 2015 (Local Time) from KMGW Reporting Station
Clear Clear  
Wind Chill: 23°   Ceiling: Unl
Heat Index: 23°   Visibility: 10mi
Dew Point: 10°   Wind: 0mph
Humidity: 58%   Direction: NA
Pressure: 30.32"   Gusts: NA
Location:  39.69°N, 79.98°W
Report Text: KMGW 282353Z 00000KT 10SM CLR M05/M12 A3032 RMK AO2 SLP288 T10501122 11028 21056 53004
Loading
Personal Weather Stations






























Interactive Weather Map New forecast layout! Learn more

10-Day Weather Forecast

Advertisements
Track Severe Weather on mobile